Mansfield Lahm Regional Airport Mansfield US
ICAO: KMFD
IATA: MFD
Category: Medium
Scheduled Services: No

Elevation: 1297 ft
TransAlt. 18000 ft.

Airport Communications:
APP/DEP:124.2
ATIS:125.3
CTAF:119.8
GND:121.8
HERC COMD POST:29.75
CLEVELAND RDO:122.6
TWR:119.8
UNICOM:122.95

KMFD Zoom In..

Runways:

(A) RW 05 length 6800 ft width 150 ft
---- / hdg 53

(B) RW 14 length 9001 ft width 150 ft
---- / hdg 143

(C) RW 23 length 6800 ft width 150 ft
---- / hdg 233

(D) RW 32 length 9001 ft width 150 ft
ILS 110.50 / hdg 323

Location; KMFD
Day. 22 / Time. 00.52 Zulu
* Altimeter: 30.36
* Temperature: 08° c. 46.4°f.
* Wind from: 010° Speed 06 kn.
Dewpoint: -07° c.
Visibility: 10 Statute Miles.
Clouds: Broken 11000 ft.

KMFD 220052Z 01006KT 10SM BKN110 08/M07 A3036 RMK AO2 SLP289 T00831067


Wind From 010°
Speed 06 kn.

  YouTube Music Video
 
jpsmedia.com for Web Design  worldairports.se 2018   terms of use